Time;durP1;ratioP1;P1;durP2;ratioP2;P2;SDS_P1;SDS_P2;PMS_P1;PMS_P2;Temp;Humidity;BMP_temperature;BMP_pressure;BME280_temperature;BME280_humidity;BME280_pressure;Samples;Min_cycle;Max_cycle;Signal;HPM_P1;HPM_P2
2022/05/17 00:01:04;;;;;;;11.13;4.55;;;16.20;99.50;;;;;;4868560;29;20025;-78
2022/05/17 00:03:29;;;;;;;7.88;3.72;;;16.20;99.70;;;;;;4868377;29;20695;-75
2022/05/17 00:05:55;;;;;;;10.52;4.00;;;16.10;99.60;;;;;;4865783;29;20033;-79
2022/05/17 00:08:21;;;;;;;9.02;4.18;;;16.10;99.70;;;;;;4865029;29;20044;-76
2022/05/17 00:10:47;;;;;;;7.25;3.75;;;16.10;99.70;;;;;;4865232;29;20017;-74
2022/05/17 00:13:14;;;;;;;8.18;3.72;;;16.10;99.70;;;;;;4848458;29;20025;-76
2022/05/17 00:15:46;;;;;;;8.45;3.35;;;16.10;99.40;;;;;;4864581;29;20736;-80
2022/05/17 00:20:48;;;;;;;9.88;3.90;;;16.10;99.90;;;;;;5436758;23;20056;-80
2022/05/17 00:23:17;;;;;;;9.25;3.65;;;16.00;99.70;;;;;;4885017;29;20058;-80
2022/05/17 00:46:36;;;;;;;6.78;3.47;;;15.50;99.90;;;;;;5565944;23;20051;-78
2022/05/17 00:49:02;;;;;;;8.35;4.10;;;15.60;99.90;;;;;;4901119;29;20103;-75
2022/05/17 00:51:30;;;;;;;12.98;5.93;;;15.50;99.90;;;;;;4883744;29;20062;-78
2022/05/17 00:54:09;;;;;;;14.60;5.30;;;15.50;99.90;;;;;;4901957;29;20673;-75
2022/05/17 00:56:43;;;;;;;10.10;4.10;;;15.50;99.90;;;;;;4901428;29;20043;-76
2022/05/17 00:59:09;;;;;;;9.85;4.47;;;15.50;99.90;;;;;;4901362;29;20697;-77
2022/05/17 01:01:36;;;;;;;10.55;3.85;;;15.50;99.90;;;;;;4884516;29;20615;-82
2022/05/17 01:06:42;;;;;;;9.43;4.70;;;15.50;99.90;;;;;;5571840;23;20048;-83
2022/05/17 01:16:55;;;;;;;12.52;4.72;;;15.20;99.90;;;;;;5443236;23;20048;-80
2022/05/17 01:19:20;;;;;;;7.68;3.65;;;15.20;99.90;;;;;;4901823;29;20228;-82
2022/05/17 01:21:46;;;;;;;8.95;3.75;;;15.20;99.90;;;;;;4890139;23;20079;-81
2022/05/17 01:24:12;;;;;;;9.32;3.88;;;15.10;99.90;;;;;;4900936;29;20716;-76
2022/05/17 01:26:44;;;;;;;8.07;4.00;;;15.00;99.90;;;;;;4901121;29;20206;-80
2022/05/17 01:29:12;;;;;;;9.35;4.13;;;15.00;99.90;;;;;;4884115;29;20547;-80
2022/05/17 01:31:38;;;;;;;8.52;3.88;;;14.90;99.90;;;;;;4900935;29;20034;-78
2022/05/17 01:34:13;;;;;;;13.85;4.47;;;14.90;99.90;;;;;;4900915;29;20039;-82
2022/05/17 01:36:40;;;;;;;11.38;4.47;;;14.80;99.90;;;;;;4901109;29;20107;-80
2022/05/17 01:39:06;;;;;;;9.55;4.30;;;14.70;99.90;;;;;;4883946;29;20694;-81
2022/05/17 01:41:32;;;;;;;7.15;3.92;;;14.70;99.90;;;;;;4901151;29;20035;-80
2022/05/17 01:43:59;;;;;;;9.50;3.92;;;14.60;99.90;;;;;;4901176;29;20223;-80
2022/05/17 01:46:25;;;;;;;9.88;4.22;;;14.60;99.90;;;;;;4900711;29;20516;-79
2022/05/17 01:48:51;;;;;;;7.07;3.47;;;14.60;99.90;;;;;;4901122;29;20040;-76
2022/05/17 01:51:19;;;;;;;8.27;4.30;;;14.70;99.90;;;;;;4900929;29;20020;-79
2022/05/17 01:53:45;;;;;;;7.88;3.35;;;14.60;99.90;;;;;;4900756;29;20037;-80
2022/05/17 01:56:10;;;;;;;8.77;3.55;;;14.70;99.90;;;;;;4900900;29;20028;-78
2022/05/17 01:58:37;;;;;;;8.20;4.25;;;14.60;99.90;;;;;;4900797;29;20017;-77
2022/05/17 02:01:05;;;;;;;7.55;3.88;;;14.60;99.90;;;;;;4901523;29;20062;-79
2022/05/17 02:03:31;;;;;;;8.63;4.22;;;14.60;99.90;;;;;;4904803;29;20064;-77
2022/05/17 02:05:56;;;;;;;7.53;4.00;;;14.60;99.90;;;;;;4904376;29;20017;-76
2022/05/17 02:08:23;;;;;;;8.00;3.42;;;14.60;99.90;;;;;;4904461;29;20100;-76
2022/05/17 02:10:49;;;;;;;8.77;4.15;;;14.60;99.90;;;;;;4904318;29;20020;-77
2022/05/17 02:13:17;;;;;;;14.02;3.72;;;14.60;99.90;;;;;;4904257;29;20032;-81
2022/05/17 02:15:44;;;;;;;7.05;3.90;;;14.50;99.90;;;;;;4904350;29;20183;-78
2022/05/17 02:18:10;;;;;;;6.45;4.15;;;14.50;99.90;;;;;;4904455;29;20020;-76
2022/05/17 02:20:35;;;;;;;7.78;3.55;;;14.50;99.90;;;;;;4904296;29;20021;-75
2022/05/17 02:23:01;;;;;;;7.70;3.67;;;14.40;99.90;;;;;;4904160;29;20132;-76
2022/05/17 02:25:27;;;;;;;11.55;4.40;;;14.40;99.90;;;;;;4887491;29;20618;-80
2022/05/17 02:27:53;;;;;;;9.25;4.03;;;14.40;99.90;;;;;;4904110;29;20155;-79
2022/05/17 02:30:19;;;;;;;10.82;4.35;;;14.40;99.90;;;;;;4904203;29;20549;-75
2022/05/17 02:32:45;;;;;;;11.57;4.10;;;14.30;99.90;;;;;;4904484;29;20690;-77
2022/05/17 02:35:15;;;;;;;7.90;3.83;;;14.30;99.90;;;;;;4904654;29;20099;-76
2022/05/17 02:37:41;;;;;;;8.55;3.85;;;14.20;99.90;;;;;;4904237;29;20831;-76
2022/05/17 02:40:08;;;;;;;11.02;4.03;;;14.20;99.90;;;;;;4904434;29;20141;-80
2022/05/17 02:42:34;;;;;;;7.38;3.40;;;14.20;99.90;;;;;;4904675;29;20667;-76
2022/05/17 02:45:00;;;;;;;8.05;4.07;;;14.10;99.90;;;;;;4904738;29;20188;-80
2022/05/17 02:47:26;;;;;;;8.23;3.70;;;14.10;99.90;;;;;;4904644;29;20092;-76
2022/05/17 02:49:52;;;;;;;8.85;4.70;;;14.10;99.90;;;;;;4886908;29;20032;-77
2022/05/17 02:52:21;;;;;;;9.32;4.03;;;14.10;99.90;;;;;;4905229;29;20037;-86
2022/05/17 02:54:46;;;;;;;8.38;4.43;;;14.00;99.90;;;;;;4888109;29;20032;-83
2022/05/17 02:57:12;;;;;;;7.75;3.50;;;14.00;99.90;;;;;;4887925;29;20079;-82
2022/05/17 02:59:38;;;;;;;10.52;4.13;;;14.00;99.90;;;;;;4904887;29;20286;-86
2022/05/17 03:04:45;;;;;;;13.65;4.10;;;13.90;99.90;;;;;;4908605;23;20691;-82
2022/05/17 03:07:10;;;;;;;7.63;3.60;;;13.90;99.90;;;;;;4903717;29;20139;-78
2022/05/17 03:09:36;;;;;;;9.05;4.32;;;13.90;99.90;;;;;;4903635;29;20104;-76
2022/05/17 03:12:02;;;;;;;10.73;4.40;;;14.00;99.90;;;;;;4902954;29;20016;-85
2022/05/17 03:14:29;;;;;;;8.20;3.67;;;14.00;99.90;;;;;;4903915;29;20031;-82
2022/05/17 03:16:54;;;;;;;9.77;4.70;;;14.00;99.90;;;;;;4903460;29;20020;-86
2022/05/17 03:19:20;;;;;;;10.00;4.40;;;14.10;99.90;;;;;;4903989;29;20038;-78
2022/05/17 03:21:47;;;;;;;8.15;3.92;;;14.00;99.90;;;;;;4903562;29;20673;-81
2022/05/17 03:24:13;;;;;;;8.45;3.45;;;14.10;99.90;;;;;;4904197;29;20024;-77
2022/05/17 03:26:39;;;;;;;8.35;3.88;;;14.10;99.90;;;;;;4903815;29;20416;-85
2022/05/17 03:29:04;;;;;;;8.68;4.00;;;14.10;99.90;;;;;;4903657;29;20067;-80
2022/05/17 03:31:30;;;;;;;6.70;2.65;;;14.10;99.90;;;;;;4903981;29;20571;-86
2022/05/17 03:33:56;;;;;;;9.05;4.32;;;14.10;99.90;;;;;;4886788;29;20793;-81
2022/05/17 03:36:22;;;;;;;9.50;3.80;;;14.10;99.90;;;;;;4903939;29;20678;-87
2022/05/17 03:38:47;;;;;;;8.98;3.80;;;14.20;99.90;;;;;;4903406;29;20032;-84
2022/05/17 03:41:13;;;;;;;8.88;4.00;;;14.20;99.90;;;;;;4915344;29;20407;-82
2022/05/17 03:43:39;;;;;;;8.07;3.22;;;14.20;99.90;;;;;;4915116;29;20027;-86
2022/05/17 03:46:07;;;;;;;8.82;4.47;;;14.30;99.90;;;;;;4900120;29;20024;-85
2022/05/17 03:48:33;;;;;;;9.18;3.42;;;14.20;99.90;;;;;;4913615;29;20023;-84
2022/05/17 03:50:59;;;;;;;6.15;3.05;;;14.30;99.90;;;;;;4905036;29;20079;-90
2022/05/17 03:53:25;;;;;;;7.38;3.38;;;14.30;99.90;;;;;;4905012;29;20021;-79
2022/05/17 03:55:50;;;;;;;8.55;3.40;;;14.30;99.90;;;;;;4909924;29;20051;-77
2022/05/17 03:58:16;;;;;;;8.45;4.35;;;14.40;99.90;;;;;;4910412;29;20020;-86
2022/05/17 04:00:42;;;;;;;7.80;3.85;;;14.40;99.90;;;;;;4909389;29;20020;-77
2022/05/17 04:03:08;;;;;;;9.75;4.00;;;14.40;99.90;;;;;;4904444;29;20086;-88
2022/05/17 04:05:34;;;;;;;10.50;3.97;;;14.40;99.90;;;;;;4904248;29;20091;-79
2022/05/17 04:08:00;;;;;;;10.57;4.88;;;14.50;99.90;;;;;;4902780;29;20569;-83
2022/05/17 04:10:29;;;;;;;7.57;4.05;;;14.50;99.90;;;;;;4903188;29;20749;-78
2022/05/17 04:12:54;;;;;;;12.60;4.32;;;14.70;99.90;;;;;;4886843;29;20036;-87
2022/05/17 04:15:22;;;;;;;7.05;3.78;;;14.60;99.90;;;;;;4886461;29;20630;-78
2022/05/17 04:17:50;;;;;;;7.32;3.53;;;14.40;99.90;;;;;;4902602;29;20024;-83
2022/05/17 04:23:37;;;;;;;8.60;3.70;;;14.90;99.90;;;;;;4988102;23;20551;-90
2022/05/17 04:26:04;;;;;;;10.38;4.35;;;15.90;99.90;;;;;;4905699;29;20084;-93
2022/05/17 04:34:16;;;;;;;7.80;4.28;;;;;;;;;;5941743;23;20026;-84
2022/05/17 05:06:10;;;;;;;16.08;7.97;;;15.70;99.90;;;;;;5744351;23;20056;-90
2022/05/17 05:08:58;;;;;;;9.10;4.38;;;15.60;99.90;;;;;;4894121;23;20044;-91
2022/05/17 05:11:36;;;;;;;;;;;;;;;;;;;;;
2022/05/17 05:22:29;;;;;;;7.78;3.60;;;16.20;99.70;;;;;;5386013;23;20124;-93
2022/05/17 05:25:15;;;;;;;9.85;3.88;;;16.20;99.50;;;;;;4864467;29;20049;-90
2022/05/17 05:30:33;;;;;;;8.45;3.65;;;16.30;99.90;;;;;;4889032;29;20047;-91
2022/05/17 05:32:59;;;;;;;7.57;3.50;;;16.30;99.90;;;;;;4888781;29;20053;-90
2022/05/17 05:35:44;;;;;;;8.20;3.72;;;16.40;99.20;;;;;;5017763;23;20052;-91
2022/05/17 05:38:12;;;;;;;8.52;3.60;;;16.40;99.90;;;;;;4901211;29;20028;-87
2022/05/17 05:43:32;;;;;;;10.95;5.00;;;16.70;99.10;;;;;;5049065;23;20056;-90
2022/05/17 05:51:10;;;;;;;6.35;3.13;;;;;;;;;;4914196;23;20056;-88
2022/05/17 05:53:47;;;;;;;8.38;3.45;;;17.10;97.80;;;;;;4911079;23;20024;-89
2022/05/17 05:56:13;;;;;;;13.52;3.60;;;17.10;98.30;;;;;;4870717;23;20068;-89
2022/05/17 05:58:42;;;;;;;10.02;4.10;;;17.40;97.50;;;;;;5036663;24;20698;-87
2022/05/17 06:01:08;;;;;;;10.00;4.05;;;17.40;97.90;;;;;;4905164;29;20024;-88
2022/05/17 06:11:35;;;;;;;7.32;3.67;;;17.90;96.90;;;;;;4963771;23;20067;-85
2022/05/17 06:14:16;;;;;;;8.60;4.47;;;18.20;96.80;;;;;;4904420;29;20611;-88
2022/05/17 06:16:54;;;;;;;10.00;5.45;;;18.20;96.80;;;;;;4888501;29;20039;-87
2022/05/17 06:22:05;;;;;;;8.80;4.80;;;18.40;95.50;;;;;;4913855;23;20052;-90
2022/05/17 06:24:34;;;;;;;10.75;4.72;;;18.50;95.40;;;;;;4901404;29;20025;-89
2022/05/17 06:27:06;;;;;;;11.95;4.93;;;18.50;95.30;;;;;;4903515;29;20025;-87
2022/05/17 06:38:06;;;;;;;9.52;4.72;;;19.20;94.80;;;;;;5087680;23;20059;-88
2022/05/17 06:40:44;;;;;;;11.38;5.05;;;19.20;94.80;;;;;;4901709;29;20614;-90
2022/05/17 06:45:45;;;;;;;8.55;3.75;;;19.40;94.10;;;;;;4910237;23;20124;-89
2022/05/17 06:48:11;;;;;;;9.93;3.67;;;20.30;93.70;;;;;;4990238;23;21066;-86
2022/05/17 06:50:37;;;;;;;9.30;5.25;;;20.30;94.00;;;;;;4914885;29;20036;-89
2022/05/17 06:55:49;;;;;;;;;;;20.60;92.80;;;;;;4895473;23;20064;-93
2022/05/17 07:01:33;;;;;;;8.68;4.55;;;20.80;91.70;;;;;;4881250;29;20065;-92
2022/05/17 07:04:03;;;;;;;8.55;4.68;;;21.90;91.00;;;;;;4865345;29;20025;-82
2022/05/17 07:06:32;;;;;;;11.63;4.45;;;21.10;91.00;;;;;;4843303;29;20030;-91
2022/05/17 07:08:58;;;;;;;7.05;3.25;;;21.20;90.70;;;;;;4833325;29;20054;-88
2022/05/17 07:28:03;;;;;;;9.60;4.18;;;22.00;89.20;;;;;;4854522;29;20069;-87
2022/05/17 07:34:00;;;;;;;8.80;3.40;;;21.60;87.20;;;;;;4835567;29;20034;-90
2022/05/17 07:36:50;;;;;;;12.48;4.40;;;22.40;88.90;;;;;;5142601;23;20059;-90
2022/05/17 07:39:18;;;;;;;9.40;4.68;;;22.50;86.20;;;;;;4886077;23;20104;-94
2022/05/17 07:42:26;;;;;;;9.55;3.67;;;22.60;86.60;;;;;;4912823;23;20056;-83
2022/05/17 07:59:00;;;;;;;7.47;4.20;;;23.40;83.50;;;;;;1831746;23;20056;-89
2022/05/17 08:01:46;;;;;;;10.63;4.25;;;23.50;82.50;;;;;;4873630;29;20093;-87
2022/05/17 08:07:12;;;;;;;10.38;5.28;;;23.40;85.40;;;;;;5354862;23;20088;-85
2022/05/17 08:14:54;;;;;;;8.70;4.20;;;23.10;87.50;;;;;;5052654;23;20063;-86
2022/05/17 08:17:23;;;;;;;9.82;4.13;;;24.10;89.80;;;;;;5230425;23;20135;-84
2022/05/17 08:22:33;;;;;;;7.70;3.50;;;23.40;85.40;;;;;;5022395;23;20056;-84
2022/05/17 08:27:48;;;;;;;10.40;4.43;;;23.80;84.50;;;;;;4925511;29;20088;-91
2022/05/17 08:50:30;;;;;;;5.68;2.72;;;24.60;78.10;;;;;;4980003;23;20056;-91
2022/05/17 09:02:30;;;;;;;8.20;3.38;;;24.90;72.00;;;;;;4837865;29;20041;-85
2022/05/17 09:38:55;;;;;;;6.10;2.83;;;25.30;65.20;;;;;;4847815;29;20049;-94
2022/05/17 09:44:12;;;;;;;5.50;2.45;;;25.50;64.10;;;;;;4861057;23;20110;-93
2022/05/17 09:47:24;;;;;;;6.93;2.47;;;25.50;64.10;;;;;;4811017;29;20116;-83
2022/05/17 10:08:13;;;;;;;3.15;1.85;;;26.00;58.70;;;;;;4769162;24;20081;-91
2022/05/17 10:11:29;;;;;;;6.35;2.28;;;23.70;58.20;;;;;;4880961;29;20036;-93
2022/05/17 10:14:33;;;;;;;5.07;2.03;;;27.10;58.30;;;;;;4884276;29;20032;-90
2022/05/17 10:21:01;;;;;;;5.65;2.08;;;26.00;56.20;;;;;;4885779;29;20036;-84
2022/05/17 10:23:30;;;;;;;5.88;2.25;;;25.20;56.20;;;;;;4906967;23;20739;-87
2022/05/17 10:26:05;;;;;;;5.72;2.53;;;26.30;57.20;;;;;;4889070;29;20025;-95
2022/05/17 10:29:00;;;;;;;6.43;2.40;;;26.50;56.80;;;;;;4889748;29;20040;-93
2022/05/17 10:31:40;;;;;;;4.28;1.85;;;26.70;55.40;;;;;;4873018;29;20017;-95
2022/05/17 10:34:27;;;;;;;4.75;2.45;;;26.80;55.00;;;;;;4890235;29;20052;-95
2022/05/17 10:40:06;;;;;;;5.20;2.53;;;27.00;54.50;;;;;;5031487;23;20575;-96
2022/05/17 10:42:42;;;;;;;6.13;2.40;;;26.90;53.20;;;;;;4888964;23;20695;-96
2022/05/17 10:57:33;;;;;;;5.13;2.80;;;28.30;51.30;;;;;;4931129;23;20400;-88
2022/05/17 11:12:30;;;;;;;5.07;2.05;;;29.00;50.30;;;;;;4928413;23;20135;-95
2022/05/17 11:18:56;;;;;;;5.18;2.47;;;29.10;48.00;;;;;;4908183;29;20044;-93
2022/05/17 11:25:28;;;;;;;8.00;2.88;;;31.80;49.00;;;;;;4906683;23;20063;-91
2022/05/17 11:29:17;;;;;;;4.85;2.08;;;29.80;45.30;;;;;;4895599;29;20032;-92
2022/05/17 11:31:39;;;;;;;4.88;2.40;;;31.10;46.90;;;;;;4888735;29;20020;-87
2022/05/17 11:34:26;;;;;;;4.72;2.30;;;30.90;48.10;;;;;;4901366;24;20070;-88
2022/05/17 11:37:16;;;;;;;9.02;4.43;;;30.20;47.20;;;;;;4865966;29;20089;-87
2022/05/17 11:39:55;;;;;;;6.68;2.47;;;31.50;46.60;;;;;;4866320;29;20041;-87
2022/05/17 11:45:55;;;;;;;4.38;2.15;;;30.30;45.60;;;;;;4905155;29;20083;-87
2022/05/17 11:48:54;;;;;;;4.78;2.10;;;30.60;44.40;;;;;;4904894;29;20032;-89
2022/05/17 11:51:38;;;;;;;4.28;2.15;;;30.80;44.70;;;;;;4888494;29;20034;-87
2022/05/17 11:57:23;;;;;;;6.38;2.28;;;31.60;44.70;;;;;;4905637;29;20035;-88
2022/05/17 12:02:19;;;;;;;5.25;2.28;;;32.70;43.20;;;;;;4847721;29;20179;-87
2022/05/17 12:04:56;;;;;;;5.00;2.42;;;33.30;43.30;;;;;;4848066;29;20063;-87
2022/05/17 12:16:29;;;;;;;4.53;2.00;;;34.70;39.20;;;;;;4911375;23;20055;-82
2022/05/17 12:28:35;;;;;;;5.60;1.98;;;34.70;39.80;;;;;;5209054;24;20717;-86
2022/05/17 12:31:07;;;;;;;5.13;1.90;;;34.00;37.70;;;;;;4904721;29;20043;-89
2022/05/17 12:48:38;;;;;;;5.13;2.43;;;33.10;41.90;;;;;;4832507;29;20098;-95
2022/05/17 12:51:09;;;;;;;4.53;2.22;;;32.50;43.40;;;;;;4821000;29;20383;-87
2022/05/17 12:53:37;;;;;;;4.70;2.05;;;30.80;43.80;;;;;;4823110;29;20240;-88
2022/05/17 12:56:24;;;;;;;5.90;2.75;;;30.20;44.90;;;;;;4848305;29;20025;-85
2022/05/17 12:58:54;;;;;;;6.00;2.63;;;29.70;45.50;;;;;;4814293;29;20026;-89
2022/05/17 13:01:34;;;;;;;5.78;2.15;;;29.30;46.10;;;;;;4813990;29;20646;-88
2022/05/17 13:04:12;;;;;;;5.78;2.58;;;29.20;46.60;;;;;;4834730;29;20041;-82
2022/05/17 13:06:48;;;;;;;5.32;2.42;;;29.00;47.10;;;;;;4827813;29;20678;-91
2022/05/17 13:09:26;;;;;;;6.28;2.58;;;29.00;47.50;;;;;;4845114;29;20054;-89
2022/05/17 13:11:56;;;;;;;5.82;2.83;;;29.00;47.40;;;;;;4830639;29;20033;-95
2022/05/17 13:14:34;;;;;;;5.63;2.72;;;28.90;47.30;;;;;;4816588;29;20041;-95
2022/05/17 13:17:44;;;;;;;4.55;2.78;;;28.90;47.80;;;;;;4819157;29;20041;-91
2022/05/17 13:20:41;;;;;;;5.22;2.15;;;28.40;45.30;;;;;;4799062;29;20042;-96
2022/05/17 13:23:08;;;;;;;4.13;2.05;;;27.10;44.90;;;;;;4799999;29;20038;-85
2022/05/17 13:25:42;;;;;;;6.20;2.40;;;28.40;45.80;;;;;;4797768;29;20042;-92
2022/05/17 13:28:11;;;;;;;4.60;1.92;;;28.70;46.00;;;;;;4797145;29;20122;-93
2022/05/17 13:30:48;;;;;;;4.95;2.17;;;29.50;45.40;;;;;;4811602;29;20038;-94
2022/05/17 13:33:38;;;;;;;8.15;2.22;;;30.70;43.80;;;;;;4798172;29;20046;-93
2022/05/17 13:36:14;;;;;;;6.82;2.25;;;31.60;43.10;;;;;;4809242;29;20022;-86
2022/05/17 13:38:41;;;;;;;5.00;2.08;;;32.00;40.10;;;;;;4831721;29;20023;-92
2022/05/17 13:41:40;;;;;;;5.43;2.13;;;31.20;41.00;;;;;;4817341;29;20033;-87
2022/05/17 13:44:08;;;;;;;4.68;2.20;;;30.30;42.70;;;;;;4754991;30;20035;-83
2022/05/17 13:46:53;;;;;;;6.20;2.67;;;29.40;44.50;;;;;;4755701;30;20088;-85
2022/05/17 13:49:37;;;;;;;6.25;2.33;;;29.60;46.70;;;;;;4755297;30;20055;-88
2022/05/17 13:59:57;;;;;;;10.45;2.53;;;26.20;57.80;;;;;;4897924;24;20061;-85
2022/05/17 14:07:16;;;;;;;3.33;1.27;;;21.70;64.40;;;;;;4898691;24;20341;-94
2022/05/17 14:13:42;;;;;;;11.82;2.50;;;20.60;74.20;;;;;;4856429;29;20587;-83
2022/05/17 14:16:19;;;;;;;2.60;1.27;;;21.60;75.60;;;;;;4780490;30;20043;-83
2022/05/17 14:19:35;;;;;;;6.15;1.60;;;21.00;77.80;;;;;;4782064;30;20046;-88
2022/05/17 14:22:38;;;;;;;4.13;1.60;;;18.50;79.30;;;;;;4796834;30;20098;-90
2022/05/17 14:27:36;;;;;;;3.90;1.70;;;20.40;85.60;;;;;;4856051;29;20054;-84
2022/05/17 14:30:01;;;;;;;7.00;1.90;;;20.30;87.70;;;;;;4872281;29;20112;-96
2022/05/17 14:32:41;;;;;;;1.92;1.13;;;20.20;89.50;;;;;;4860206;29;20034;-87
2022/05/17 14:35:45;;;;;;;4.43;1.27;;;19.50;90.30;;;;;;4940284;23;20450;-81
2022/05/17 14:38:12;;;;;;;3.28;1.27;;;;;;;;;;4886029;23;1270266;-84
2022/05/17 14:40:59;;;;;;;1.75;0.95;;;19.50;90.60;;;;;;4895317;29;20101;-94
2022/05/17 14:43:33;;;;;;;4.78;1.23;;;19.50;88.00;;;;;;4883648;29;20025;-93
2022/05/17 14:46:17;;;;;;;2.38;1.02;;;19.60;88.10;;;;;;4881375;29;20017;-94
2022/05/17 14:48:47;;;;;;;2.00;0.93;;;19.70;86.80;;;;;;4893874;29;20056;-96
2022/05/17 14:51:25;;;;;;;3.05;1.08;;;19.60;87.40;;;;;;4897719;29;20032;-93
2022/05/17 14:53:57;;;;;;;3.67;0.95;;;19.80;89.40;;;;;;4892340;29;20037;-96
2022/05/17 14:56:41;;;;;;;4.57;1.10;;;20.10;85.40;;;;;;4873570;29;20025;-96
2022/05/17 15:02:33;;;;;;;1.95;0.80;;;20.40;84.50;;;;;;2453308;23;20048;-87
2022/05/17 15:05:17;;;;;;;3.45;1.50;;;20.80;84.70;;;;;;4881057;29;20699;-95
2022/05/17 15:07:49;;;;;;;2.35;0.98;;;20.90;81.70;;;;;;4885252;24;20029;-81
2022/05/17 15:15:27;;;;;;;2.80;1.25;;;21.10;83.30;;;;;;4806115;29;20729;-83
2022/05/17 15:18:15;;;;;;;4.68;1.98;;;21.10;83.80;;;;;;4808201;29;20031;-95
2022/05/17 15:20:52;;;;;;;3.22;1.13;;;21.20;84.80;;;;;;4792367;29;20035;-96
2022/05/17 15:23:35;;;;;;;3.72;1.83;;;21.50;86.00;;;;;;4798605;29;20039;-86
2022/05/17 15:26:16;;;;;;;;;;;22.30;86.50;;;;;;4826683;29;20551;-96
2022/05/17 15:28:43;;;;;;;4.82;1.88;;;21.10;87.50;;;;;;4817439;29;19971;-95
2022/05/17 15:31:19;;;;;;;2.58;1.40;;;20.80;88.10;;;;;;4802285;29;20034;-96
2022/05/17 15:33:45;;;;;;;3.40;1.33;;;20.80;89.50;;;;;;4818604;29;20037;-96
2022/05/17 15:36:11;;;;;;;2.78;1.50;;;20.70;88.80;;;;;;4818973;29;20421;-94
2022/05/17 15:38:45;;;;;;;5.22;1.75;;;20.50;90.00;;;;;;4828609;29;20411;-96
2022/05/17 15:41:12;;;;;;;3.58;1.50;;;20.70;89.80;;;;;;4810780;29;20045;-85
2022/05/17 15:43:44;;;;;;;7.13;2.50;;;20.80;89.30;;;;;;4824894;29;20142;-86
2022/05/17 15:46:25;;;;;;;4.47;1.80;;;20.90;89.30;;;;;;4818654;29;20028;-95
2022/05/17 15:54:12;;;;;;;6.75;2.05;;;20.60;87.60;;;;;;5089803;23;20068;-87
2022/05/17 15:56:38;;;;;;;9.63;2.80;;;;;;;;;;4866724;29;20052;-86
2022/05/17 15:59:10;;;;;;;4.57;1.73;;;20.50;89.10;;;;;;4869029;29;20036;-88
2022/05/17 16:01:42;;;;;;;6.32;2.38;;;19.20;90.40;;;;;;4880407;29;20077;-90
2022/05/17 16:09:39;;;;;;;2.67;1.05;;;;;;;;;;4796734;29;20668;-88
2022/05/17 16:12:05;;;;;;;2.63;1.40;;;19.40;93.40;;;;;;4800127;29;20104;-87
2022/05/17 16:14:39;;;;;;;4.38;1.45;;;19.30;94.40;;;;;;4800011;29;20046;-87
2022/05/17 16:17:26;;;;;;;4.57;1.88;;;19.20;95.00;;;;;;4791171;29;20031;-90
2022/05/17 16:22:19;;;;;;;4.97;2.10;;;19.00;95.10;;;;;;4909908;23;20057;-89
2022/05/17 16:27:53;;;;;;;5.40;1.75;;;16.80;94.60;;;;;;4897888;23;20113;-87
2022/05/17 16:30:40;;;;;;;3.95;1.45;;;18.90;95.50;;;;;;4851335;29;20053;-88
2022/05/17 16:33:14;;;;;;;4.03;1.75;;;19.00;95.50;;;;;;4876557;29;20090;-87
2022/05/17 16:35:41;;;;;;;4.13;2.30;;;18.90;95.60;;;;;;4858691;29;20029;-90
2022/05/17 16:38:37;;;;;;;5.03;2.00;;;18.90;95.80;;;;;;4869289;29;20029;-91
2022/05/17 16:54:18;;;;;;;8.80;2.65;;;18.70;97.00;;;;;;5025213;23;20057;-88
2022/05/17 16:57:04;;;;;;;6.95;2.47;;;18.60;97.00;;;;;;4831881;29;20061;-85
2022/05/17 17:25:40;;;;;;;3.92;1.83;;;18.50;97.30;;;;;;5177967;23;20068;-89
2022/05/17 19:03:11;;;;;;;7.03;2.80;;;17.10;99.90;;;;;;553573;23;20345;-83
2022/05/17 19:35:54;;;;;;;8.95;2.67;;;16.80;99.90;;;;;;1295244;23;20338;-86
2022/05/17 19:41:58;;;;;;;7.70;2.53;;;16.70;99.90;;;;;;5074854;23;20064;-94
2022/05/17 19:48:20;;;;;;;5.65;2.38;;;16.60;99.90;;;;;;5140668;24;20152;-90
2022/05/17 19:58:42;;;;;;;8.65;2.63;;;16.40;99.90;;;;;;5895443;23;21012;-87
2022/05/17 20:01:32;;;;;;;6.28;2.83;;;16.40;99.90;;;;;;4812533;29;20054;-89
2022/05/17 20:04:56;;;;;;;5.53;2.28;;;16.40;99.90;;;;;;4741263;30;20043;-86
2022/05/17 20:07:22;;;;;;;6.07;2.28;;;16.80;99.90;;;;;;5089945;24;20056;-89
2022/05/17 20:12:18;;;;;;;7.20;3.05;;;16.10;99.90;;;;;;4872222;23;20139;-88
2022/05/17 20:37:12;;;;;;;8.63;3.58;;;16.40;99.90;;;;;;4967528;23;20090;-87
2022/05/17 20:39:41;;;;;;;7.03;3.00;;;17.20;99.90;;;;;;4855359;24;20140;-86
2022/05/17 20:42:11;;;;;;;6.78;2.60;;;16.30;99.90;;;;;;4993329;23;20047;-89
